sensor_id;sensor_type;location;lat;lon;timestamp;P1;durP1;ratioP1;P2;durP2;ratioP2
22282;SDS011;11310;51.528;21.204;2022-12-07T00:01:46;12.57;;;6.07;;
22282;SDS011;11310;51.528;21.204;2022-12-07T00:04:18;11.05;;;5.60;;
22282;SDS011;11310;51.528;21.204;2022-12-07T00:06:50;12.15;;;5.38;;
22282;SDS011;11310;51.528;21.204;2022-12-07T00:09:20;11.98;;;5.63;;
22282;SDS011;11310;51.528;21.204;2022-12-07T00:11:49;12.25;;;5.72;;
22282;SDS011;11310;51.528;21.204;2022-12-07T00:14:22;11.55;;;5.68;;
22282;SDS011;11310;51.528;21.204;2022-12-07T00:16:51;12.07;;;6.35;;
22282;SDS011;11310;51.528;21.204;2022-12-07T00:19:20;12.40;;;6.25;;
22282;SDS011;11310;51.528;21.204;2022-12-07T00:21:51;13.18;;;5.57;;
22282;SDS011;11310;51.528;21.204;2022-12-07T00:24:20;14.27;;;6.03;;
22282;SDS011;11310;51.528;21.204;2022-12-07T00:26:49;12.95;;;6.22;;
22282;SDS011;11310;51.528;21.204;2022-12-07T00:29:18;16.13;;;6.68;;
22282;SDS011;11310;51.528;21.204;2022-12-07T00:31:50;14.20;;;6.25;;
22282;SDS011;11310;51.528;21.204;2022-12-07T00:34:19;11.95;;;5.88;;
22282;SDS011;11310;51.528;21.204;2022-12-07T00:36:49;12.32;;;5.97;;
22282;SDS011;11310;51.528;21.204;2022-12-07T00:39:23;9.55;;;5.28;;
22282;SDS011;11310;51.528;21.204;2022-12-07T00:42:16;10.43;;;4.50;;
22282;SDS011;11310;51.528;21.204;2022-12-07T00:45:02;10.75;;;4.18;;
22282;SDS011;11310;51.528;21.204;2022-12-07T00:47:34;11.40;;;4.10;;
22282;SDS011;11310;51.528;21.204;2022-12-07T00:50:03;10.00;;;3.83;;
22282;SDS011;11310;51.528;21.204;2022-12-07T00:52:33;9.40;;;3.90;;
22282;SDS011;11310;51.528;21.204;2022-12-07T00:55:05;8.27;;;3.58;;
22282;SDS011;11310;51.528;21.204;2022-12-07T00:57:50;9.02;;;4.07;;
22282;SDS011;11310;51.528;21.204;2022-12-07T01:00:21;9.32;;;4.38;;
22282;SDS011;11310;51.528;21.204;2022-12-07T01:03:05;10.05;;;4.10;;
22282;SDS011;11310;51.528;21.204;2022-12-07T01:05:37;9.82;;;4.00;;
22282;SDS011;11310;51.528;21.204;2022-12-07T01:08:11;9.95;;;4.20;;
22282;SDS011;11310;51.528;21.204;2022-12-07T01:11:02;9.30;;;4.75;;
22282;SDS011;11310;51.528;21.204;2022-12-07T01:13:43;8.57;;;4.00;;
22282;SDS011;11310;51.528;21.204;2022-12-07T01:16:15;9.83;;;4.20;;
22282;SDS011;11310;51.528;21.204;2022-12-07T01:18:47;7.97;;;3.77;;
22282;SDS011;11310;51.528;21.204;2022-12-07T01:21:23;10.05;;;4.70;;
22282;SDS011;11310;51.528;21.204;2022-12-07T01:24:15;7.60;;;3.85;;
22282;SDS011;11310;51.528;21.204;2022-12-07T01:27:13;10.23;;;4.10;;
22282;SDS011;11310;51.528;21.204;2022-12-07T01:29:57;8.48;;;4.15;;
22282;SDS011;11310;51.528;21.204;2022-12-07T01:32:28;7.67;;;3.83;;
22282;SDS011;11310;51.528;21.204;2022-12-07T01:34:59;7.78;;;3.80;;
22282;SDS011;11310;51.528;21.204;2022-12-07T01:37:33;8.43;;;3.78;;
22282;SDS011;11310;51.528;21.204;2022-12-07T01:40:04;6.90;;;3.28;;
22282;SDS011;11310;51.528;21.204;2022-12-07T01:42:35;7.82;;;3.63;;
22282;SDS011;11310;51.528;21.204;2022-12-07T01:45:36;8.05;;;3.85;;
22282;SDS011;11310;51.528;21.204;2022-12-07T01:48:40;11.68;;;3.70;;
22282;SDS011;11310;51.528;21.204;2022-12-07T01:51:34;6.47;;;3.33;;
22282;SDS011;11310;51.528;21.204;2022-12-07T01:54:26;7.75;;;3.47;;
22282;SDS011;11310;51.528;21.204;2022-12-07T01:57:07;9.13;;;3.65;;
22282;SDS011;11310;51.528;21.204;2022-12-07T01:59:59;9.43;;;4.40;;
22282;SDS011;11310;51.528;21.204;2022-12-07T02:03:11;7.90;;;3.60;;
22282;SDS011;11310;51.528;21.204;2022-12-07T02:05:44;8.52;;;3.63;;
22282;SDS011;11310;51.528;21.204;2022-12-07T02:08:16;8.07;;;3.58;;
22282;SDS011;11310;51.528;21.204;2022-12-07T02:13:16;6.88;;;3.30;;
22282;SDS011;11310;51.528;21.204;2022-12-07T02:18:44;7.65;;;3.60;;
22282;SDS011;11310;51.528;21.204;2022-12-07T02:21:26;6.78;;;3.33;;
22282;SDS011;11310;51.528;21.204;2022-12-07T02:24:19;7.55;;;3.75;;
22282;SDS011;11310;51.528;21.204;2022-12-07T02:27:07;8.30;;;3.67;;
22282;SDS011;11310;51.528;21.204;2022-12-07T02:30:08;6.55;;;3.35;;
22282;SDS011;11310;51.528;21.204;2022-12-07T02:32:47;7.13;;;3.55;;
22282;SDS011;11310;51.528;21.204;2022-12-07T02:35:24;6.82;;;3.35;;
22282;SDS011;11310;51.528;21.204;2022-12-07T02:38:11;6.75;;;3.38;;
22282;SDS011;11310;51.528;21.204;2022-12-07T02:41:04;5.90;;;3.10;;
22282;SDS011;11310;51.528;21.204;2022-12-07T02:43:38;10.77;;;4.15;;
22282;SDS011;11310;51.528;21.204;2022-12-07T02:46:15;8.85;;;3.40;;
22282;SDS011;11310;51.528;21.204;2022-12-07T02:48:56;8.20;;;3.75;;
22282;SDS011;11310;51.528;21.204;2022-12-07T02:51:32;7.18;;;3.35;;
22282;SDS011;11310;51.528;21.204;2022-12-07T02:54:09;8.60;;;4.20;;
22282;SDS011;11310;51.528;21.204;2022-12-07T02:56:44;9.77;;;4.03;;
22282;SDS011;11310;51.528;21.204;2022-12-07T02:59:46;7.53;;;3.85;;
22282;SDS011;11310;51.528;21.204;2022-12-07T03:02:46;8.50;;;3.83;;
22282;SDS011;11310;51.528;21.204;2022-12-07T03:05:29;8.35;;;3.90;;
22282;SDS011;11310;51.528;21.204;2022-12-07T03:08:19;7.90;;;4.00;;
22282;SDS011;11310;51.528;21.204;2022-12-07T03:10:56;10.07;;;4.20;;
22282;SDS011;11310;51.528;21.204;2022-12-07T03:13:39;8.32;;;3.60;;
22282;SDS011;11310;51.528;21.204;2022-12-07T03:16:15;7.15;;;3.72;;
22282;SDS011;11310;51.528;21.204;2022-12-07T03:19:22;7.57;;;3.55;;
22282;SDS011;11310;51.528;21.204;2022-12-07T03:22:26;7.15;;;3.88;;
22282;SDS011;11310;51.528;21.204;2022-12-07T03:25:10;10.30;;;3.87;;
22282;SDS011;11310;51.528;21.204;2022-12-07T03:27:52;9.52;;;4.10;;
22282;SDS011;11310;51.528;21.204;2022-12-07T03:30:27;8.80;;;3.88;;
22282;SDS011;11310;51.528;21.204;2022-12-07T03:33:17;9.82;;;4.32;;
22282;SDS011;11310;51.528;21.204;2022-12-07T03:35:56;7.75;;;3.67;;
22282;SDS011;11310;51.528;21.204;2022-12-07T03:39:07;9.00;;;4.10;;
22282;SDS011;11310;51.528;21.204;2022-12-07T03:41:58;8.00;;;4.10;;
22282;SDS011;11310;51.528;21.204;2022-12-07T03:44:41;8.25;;;3.88;;
22282;SDS011;11310;51.528;21.204;2022-12-07T03:47:34;9.38;;;4.05;;
22282;SDS011;11310;51.528;21.204;2022-12-07T03:50:21;6.85;;;3.50;;
22282;SDS011;11310;51.528;21.204;2022-12-07T03:53:01;8.48;;;4.28;;
22282;SDS011;11310;51.528;21.204;2022-12-07T03:55:35;6.55;;;3.58;;
22282;SDS011;11310;51.528;21.204;2022-12-07T03:58:13;8.77;;;4.32;;
22282;SDS011;11310;51.528;21.204;2022-12-07T04:00:46;8.65;;;3.78;;
22282;SDS011;11310;51.528;21.204;2022-12-07T04:03:31;8.77;;;4.35;;
22282;SDS011;11310;51.528;21.204;2022-12-07T04:06:18;9.65;;;4.57;;
22282;SDS011;11310;51.528;21.204;2022-12-07T04:08:48;8.07;;;3.72;;
22282;SDS011;11310;51.528;21.204;2022-12-07T04:11:22;8.00;;;4.15;;
22282;SDS011;11310;51.528;21.204;2022-12-07T04:14:07;9.18;;;3.78;;
22282;SDS011;11310;51.528;21.204;2022-12-07T04:16:58;6.65;;;3.42;;
22282;SDS011;11310;51.528;21.204;2022-12-07T04:19:28;9.40;;;4.10;;
22282;SDS011;11310;51.528;21.204;2022-12-07T04:21:59;6.13;;;3.28;;
22282;SDS011;11310;51.528;21.204;2022-12-07T04:24:35;6.85;;;3.42;;
22282;SDS011;11310;51.528;21.204;2022-12-07T04:27:04;7.75;;;3.67;;
22282;SDS011;11310;51.528;21.204;2022-12-07T04:29:44;8.63;;;3.88;;
22282;SDS011;11310;51.528;21.204;2022-12-07T04:32:29;7.50;;;3.80;;
22282;SDS011;11310;51.528;21.204;2022-12-07T04:34:58;5.82;;;3.42;;
22282;SDS011;11310;51.528;21.204;2022-12-07T04:37:27;7.47;;;3.33;;
22282;SDS011;11310;51.528;21.204;2022-12-07T04:39:58;8.90;;;4.05;;
22282;SDS011;11310;51.528;21.204;2022-12-07T04:42:27;8.13;;;3.90;;
22282;SDS011;11310;51.528;21.204;2022-12-07T04:44:56;8.50;;;4.60;;
22282;SDS011;11310;51.528;21.204;2022-12-07T04:47:24;10.38;;;4.15;;
22282;SDS011;11310;51.528;21.204;2022-12-07T04:49:53;7.97;;;4.00;;
22282;SDS011;11310;51.528;21.204;2022-12-07T04:52:22;8.02;;;3.90;;
22282;SDS011;11310;51.528;21.204;2022-12-07T04:54:51;7.60;;;4.13;;
22282;SDS011;11310;51.528;21.204;2022-12-07T04:57:21;7.35;;;3.95;;
22282;SDS011;11310;51.528;21.204;2022-12-07T04:59:50;8.32;;;4.28;;
22282;SDS011;11310;51.528;21.204;2022-12-07T05:02:18;9.10;;;4.18;;
22282;SDS011;11310;51.528;21.204;2022-12-07T05:04:47;7.78;;;4.40;;
22282;SDS011;11310;51.528;21.204;2022-12-07T05:07:16;8.10;;;4.13;;
22282;SDS011;11310;51.528;21.204;2022-12-07T05:09:45;8.07;;;3.92;;
22282;SDS011;11310;51.528;21.204;2022-12-07T05:12:13;7.78;;;3.78;;
22282;SDS011;11310;51.528;21.204;2022-12-07T05:14:44;8.38;;;4.30;;
22282;SDS011;11310;51.528;21.204;2022-12-07T05:17:12;9.40;;;3.75;;
22282;SDS011;11310;51.528;21.204;2022-12-07T05:19:41;8.43;;;3.58;;
22282;SDS011;11310;51.528;21.204;2022-12-07T05:22:11;6.05;;;2.92;;
22282;SDS011;11310;51.528;21.204;2022-12-07T05:24:41;5.80;;;3.05;;
22282;SDS011;11310;51.528;21.204;2022-12-07T05:27:30;5.88;;;2.92;;
22282;SDS011;11310;51.528;21.204;2022-12-07T05:30:00;6.60;;;3.20;;
22282;SDS011;11310;51.528;21.204;2022-12-07T05:32:31;6.10;;;3.20;;
22282;SDS011;11310;51.528;21.204;2022-12-07T05:35:09;6.22;;;3.13;;
22282;SDS011;11310;51.528;21.204;2022-12-07T05:37:44;5.88;;;3.40;;
22282;SDS011;11310;51.528;21.204;2022-12-07T05:40:23;7.85;;;3.22;;
22282;SDS011;11310;51.528;21.204;2022-12-07T05:43:04;5.60;;;2.92;;
22282;SDS011;11310;51.528;21.204;2022-12-07T05:45:35;6.60;;;2.92;;
22282;SDS011;11310;51.528;21.204;2022-12-07T05:48:38;6.03;;;3.10;;
22282;SDS011;11310;51.528;21.204;2022-12-07T05:51:15;6.32;;;3.05;;
22282;SDS011;11310;51.528;21.204;2022-12-07T05:53:50;8.63;;;3.28;;
22282;SDS011;11310;51.528;21.204;2022-12-07T05:56:26;6.95;;;3.47;;
22282;SDS011;11310;51.528;21.204;2022-12-07T05:59:23;8.00;;;4.10;;
22282;SDS011;11310;51.528;21.204;2022-12-07T06:02:07;9.38;;;4.35;;
22282;SDS011;11310;51.528;21.204;2022-12-07T06:04:51;8.43;;;3.78;;
22282;SDS011;11310;51.528;21.204;2022-12-07T06:07:33;9.00;;;4.10;;
22282;SDS011;11310;51.528;21.204;2022-12-07T06:10:14;8.07;;;3.72;;
22282;SDS011;11310;51.528;21.204;2022-12-07T06:13:11;8.73;;;3.75;;
22282;SDS011;11310;51.528;21.204;2022-12-07T06:15:53;8.32;;;3.38;;
22282;SDS011;11310;51.528;21.204;2022-12-07T06:18:39;9.25;;;4.05;;
22282;SDS011;11310;51.528;21.204;2022-12-07T06:21:20;6.75;;;3.53;;
22282;SDS011;11310;51.528;21.204;2022-12-07T06:23:55;8.25;;;3.28;;
22282;SDS011;11310;51.528;21.204;2022-12-07T06:26:32;8.32;;;3.50;;
22282;SDS011;11310;51.528;21.204;2022-12-07T06:29:07;7.55;;;2.85;;
22282;SDS011;11310;51.528;21.204;2022-12-07T06:31:36;7.57;;;3.42;;
22282;SDS011;11310;51.528;21.204;2022-12-07T06:34:09;6.03;;;2.85;;
22282;SDS011;11310;51.528;21.204;2022-12-07T06:36:39;6.88;;;3.05;;
22282;SDS011;11310;51.528;21.204;2022-12-07T06:39:08;6.10;;;2.95;;
22282;SDS011;11310;51.528;21.204;2022-12-07T06:41:41;9.63;;;3.35;;
22282;SDS011;11310;51.528;21.204;2022-12-07T06:44:10;7.10;;;3.30;;
22282;SDS011;11310;51.528;21.204;2022-12-07T06:46:40;5.80;;;2.95;;
22282;SDS011;11310;51.528;21.204;2022-12-07T06:49:10;6.38;;;3.05;;
22282;SDS011;11310;51.528;21.204;2022-12-07T06:51:41;8.75;;;3.50;;
22282;SDS011;11310;51.528;21.204;2022-12-07T06:54:14;6.57;;;3.42;;
22282;SDS011;11310;51.528;21.204;2022-12-07T06:56:44;6.05;;;3.13;;
22282;SDS011;11310;51.528;21.204;2022-12-07T06:59:12;8.45;;;3.28;;
22282;SDS011;11310;51.528;21.204;2022-12-07T07:01:41;6.32;;;3.13;;
22282;SDS011;11310;51.528;21.204;2022-12-07T07:04:13;6.35;;;3.10;;
22282;SDS011;11310;51.528;21.204;2022-12-07T07:09:10;4.70;;;2.50;;
22282;SDS011;11310;51.528;21.204;2022-12-07T07:11:39;4.82;;;2.60;;
22282;SDS011;11310;51.528;21.204;2022-12-07T07:14:09;4.70;;;2.70;;
22282;SDS011;11310;51.528;21.204;2022-12-07T07:16:41;4.53;;;2.70;;
22282;SDS011;11310;51.528;21.204;2022-12-07T07:19:10;6.15;;;2.75;;
22282;SDS011;11310;51.528;21.204;2022-12-07T07:21:40;6.90;;;3.10;;
22282;SDS011;11310;51.528;21.204;2022-12-07T07:24:08;6.93;;;3.08;;
22282;SDS011;11310;51.528;21.204;2022-12-07T07:26:37;9.32;;;3.80;;
22282;SDS011;11310;51.528;21.204;2022-12-07T07:29:07;6.55;;;3.28;;
22282;SDS011;11310;51.528;21.204;2022-12-07T07:31:37;10.05;;;3.80;;
22282;SDS011;11310;51.528;21.204;2022-12-07T07:34:06;7.63;;;3.83;;
22282;SDS011;11310;51.528;21.204;2022-12-07T07:36:36;7.53;;;3.90;;
22282;SDS011;11310;51.528;21.204;2022-12-07T07:39:06;9.32;;;3.92;;
22282;SDS011;11310;51.528;21.204;2022-12-07T07:41:35;9.32;;;4.00;;
22282;SDS011;11310;51.528;21.204;2022-12-07T07:44:11;8.50;;;4.03;;
22282;SDS011;11310;51.528;21.204;2022-12-07T07:46:40;9.70;;;4.00;;
22282;SDS011;11310;51.528;21.204;2022-12-07T07:49:08;10.77;;;4.47;;
22282;SDS011;11310;51.528;21.204;2022-12-07T07:51:42;11.25;;;4.60;;
22282;SDS011;11310;51.528;21.204;2022-12-07T07:54:10;12.60;;;5.05;;
22282;SDS011;11310;51.528;21.204;2022-12-07T07:56:44;11.35;;;4.75;;
22282;SDS011;11310;51.528;21.204;2022-12-07T07:59:14;7.78;;;3.88;;
22282;SDS011;11310;51.528;21.204;2022-12-07T08:01:43;7.97;;;4.07;;
22282;SDS011;11310;51.528;21.204;2022-12-07T08:04:11;10.65;;;4.47;;
22282;SDS011;11310;51.528;21.204;2022-12-07T08:06:42;9.15;;;3.80;;
22282;SDS011;11310;51.528;21.204;2022-12-07T08:09:11;9.73;;;3.92;;
22282;SDS011;11310;51.528;21.204;2022-12-07T08:11:40;6.75;;;3.08;;
22282;SDS011;11310;51.528;21.204;2022-12-07T08:14:09;6.82;;;3.63;;
22282;SDS011;11310;51.528;21.204;2022-12-07T08:16:38;6.75;;;3.05;;
22282;SDS011;11310;51.528;21.204;2022-12-07T08:19:10;6.68;;;2.90;;
22282;SDS011;11310;51.528;21.204;2022-12-07T08:21:39;7.78;;;3.10;;
22282;SDS011;11310;51.528;21.204;2022-12-07T08:24:09;5.95;;;3.00;;
22282;SDS011;11310;51.528;21.204;2022-12-07T08:26:38;5.68;;;2.80;;
22282;SDS011;11310;51.528;21.204;2022-12-07T08:29:09;5.45;;;2.88;;
22282;SDS011;11310;51.528;21.204;2022-12-07T08:31:38;6.85;;;2.70;;
22282;SDS011;11310;51.528;21.204;2022-12-07T08:34:07;6.63;;;3.50;;
22282;SDS011;11310;51.528;21.204;2022-12-07T08:36:38;6.30;;;2.90;;
22282;SDS011;11310;51.528;21.204;2022-12-07T08:39:07;6.40;;;2.70;;
22282;SDS011;11310;51.528;21.204;2022-12-07T08:41:58;7.22;;;2.83;;
22282;SDS011;11310;51.528;21.204;2022-12-07T08:44:27;6.28;;;2.80;;
22282;SDS011;11310;51.528;21.204;2022-12-07T08:47:02;6.82;;;3.13;;
22282;SDS011;11310;51.528;21.204;2022-12-07T08:49:34;4.78;;;2.55;;
22282;SDS011;11310;51.528;21.204;2022-12-07T08:52:08;7.18;;;3.08;;
22282;SDS011;11310;51.528;21.204;2022-12-07T08:54:41;6.53;;;3.00;;
22282;SDS011;11310;51.528;21.204;2022-12-07T08:57:10;7.65;;;3.28;;
22282;SDS011;11310;51.528;21.204;2022-12-07T08:59:40;7.25;;;3.13;;
22282;SDS011;11310;51.528;21.204;2022-12-07T09:02:09;8.25;;;3.55;;
22282;SDS011;11310;51.528;21.204;2022-12-07T09:04:38;6.22;;;2.95;;
22282;SDS011;11310;51.528;21.204;2022-12-07T09:07:08;9.15;;;3.60;;
22282;SDS011;11310;51.528;21.204;2022-12-07T09:09:37;7.82;;;3.40;;
22282;SDS011;11310;51.528;21.204;2022-12-07T09:12:08;7.45;;;3.58;;
22282;SDS011;11310;51.528;21.204;2022-12-07T09:14:37;7.90;;;3.67;;
22282;SDS011;11310;51.528;21.204;2022-12-07T09:17:13;6.50;;;3.42;;
22282;SDS011;11310;51.528;21.204;2022-12-07T09:19:42;8.88;;;3.55;;
22282;SDS011;11310;51.528;21.204;2022-12-07T09:22:11;9.43;;;4.00;;
22282;SDS011;11310;51.528;21.204;2022-12-07T09:24:40;8.80;;;4.00;;
22282;SDS011;11310;51.528;21.204;2022-12-07T09:27:11;8.32;;;4.10;;
22282;SDS011;11310;51.528;21.204;2022-12-07T09:29:40;10.35;;;4.10;;
22282;SDS011;11310;51.528;21.204;2022-12-07T09:32:09;8.75;;;3.88;;
22282;SDS011;11310;51.528;21.204;2022-12-07T09:34:38;10.38;;;5.03;;
22282;SDS011;11310;51.528;21.204;2022-12-07T09:37:07;7.55;;;3.85;;
22282;SDS011;11310;51.528;21.204;2022-12-07T09:39:37;9.35;;;4.35;;
22282;SDS011;11310;51.528;21.204;2022-12-07T09:42:26;9.80;;;3.72;;
22282;SDS011;11310;51.528;21.204;2022-12-07T09:44:58;10.63;;;3.95;;
22282;SDS011;11310;51.528;21.204;2022-12-07T09:47:27;8.93;;;3.83;;
22282;SDS011;11310;51.528;21.204;2022-12-07T09:50:03;8.40;;;3.92;;
22282;SDS011;11310;51.528;21.204;2022-12-07T09:52:37;10.10;;;4.30;;
22282;SDS011;11310;51.528;21.204;2022-12-07T09:55:10;9.05;;;4.20;;
22282;SDS011;11310;51.528;21.204;2022-12-07T09:57:42;10.80;;;4.28;;
22282;SDS011;11310;51.528;21.204;2022-12-07T10:00:12;10.25;;;4.72;;
22282;SDS011;11310;51.528;21.204;2022-12-07T10:02:43;13.80;;;5.07;;
22282;SDS011;11310;51.528;21.204;2022-12-07T10:05:15;11.60;;;5.10;;
22282;SDS011;11310;51.528;21.204;2022-12-07T10:07:50;10.85;;;4.65;;
22282;SDS011;11310;51.528;21.204;2022-12-07T10:10:21;9.85;;;4.85;;
22282;SDS011;11310;51.528;21.204;2022-12-07T10:13:02;10.57;;;4.65;;
22282;SDS011;11310;51.528;21.204;2022-12-07T10:18:26;10.27;;;4.85;;
22282;SDS011;11310;51.528;21.204;2022-12-07T10:21:03;9.00;;;4.30;;
22282;SDS011;11310;51.528;21.204;2022-12-07T10:23:36;10.90;;;4.70;;
22282;SDS011;11310;51.528;21.204;2022-12-07T10:26:20;9.43;;;4.37;;
22282;SDS011;11310;51.528;21.204;2022-12-07T10:28:59;8.00;;;3.78;;
22282;SDS011;11310;51.528;21.204;2022-12-07T10:31:32;8.65;;;4.20;;
22282;SDS011;11310;51.528;21.204;2022-12-07T10:34:13;8.13;;;4.10;;
22282;SDS011;11310;51.528;21.204;2022-12-07T10:36:49;9.07;;;4.38;;
22282;SDS011;11310;51.528;21.204;2022-12-07T10:39:19;8.98;;;4.50;;
22282;SDS011;11310;51.528;21.204;2022-12-07T10:41:54;9.05;;;4.45;;
22282;SDS011;11310;51.528;21.204;2022-12-07T10:44:27;8.88;;;4.70;;
22282;SDS011;11310;51.528;21.204;2022-12-07T10:47:10;11.65;;;4.30;;
22282;SDS011;11310;51.528;21.204;2022-12-07T10:50:01;11.63;;;4.80;;
22282;SDS011;11310;51.528;21.204;2022-12-07T10:55:38;9.07;;;4.40;;
22282;SDS011;11310;51.528;21.204;2022-12-07T10:58:22;10.38;;;4.43;;
22282;SDS011;11310;51.528;21.204;2022-12-07T11:01:10;11.02;;;4.53;;
22282;SDS011;11310;51.528;21.204;2022-12-07T11:03:48;7.63;;;4.05;;
22282;SDS011;11310;51.528;21.204;2022-12-07T11:06:33;7.70;;;3.97;;
22282;SDS011;11310;51.528;21.204;2022-12-07T11:09:17;7.00;;;3.67;;
22282;SDS011;11310;51.528;21.204;2022-12-07T11:12:20;7.97;;;3.60;;
22282;SDS011;11310;51.528;21.204;2022-12-07T11:15:04;7.20;;;3.72;;
22282;SDS011;11310;51.528;21.204;2022-12-07T11:17:45;7.97;;;3.88;;
22282;SDS011;11310;51.528;21.204;2022-12-07T11:20:28;6.32;;;3.03;;
22282;SDS011;11310;51.528;21.204;2022-12-07T11:25:38;6.88;;;3.22;;
22282;SDS011;11310;51.528;21.204;2022-12-07T11:28:23;8.68;;;3.50;;
22282;SDS011;11310;51.528;21.204;2022-12-07T11:31:07;7.88;;;3.65;;
22282;SDS011;11310;51.528;21.204;2022-12-07T11:33:43;6.93;;;3.60;;
22282;SDS011;11310;51.528;21.204;2022-12-07T11:36:17;6.70;;;3.13;;
22282;SDS011;11310;51.528;21.204;2022-12-07T11:39:00;5.55;;;3.13;;
22282;SDS011;11310;51.528;21.204;2022-12-07T11:41:34;7.40;;;3.00;;
22282;SDS011;11310;51.528;21.204;2022-12-07T11:44:06;7.32;;;3.40;;
22282;SDS011;11310;51.528;21.204;2022-12-07T11:46:42;7.50;;;3.17;;
22282;SDS011;11310;51.528;21.204;2022-12-07T11:51:58;6.03;;;3.17;;
22282;SDS011;11310;51.528;21.204;2022-12-07T11:54:32;6.82;;;3.25;;
22282;SDS011;11310;51.528;21.204;2022-12-07T11:57:09;5.50;;;2.95;;
22282;SDS011;11310;51.528;21.204;2022-12-07T11:59:57;6.15;;;3.00;;
22282;SDS011;11310;51.528;21.204;2022-12-07T12:02:33;6.95;;;2.70;;
22282;SDS011;11310;51.528;21.204;2022-12-07T12:05:15;6.10;;;2.53;;
22282;SDS011;11310;51.528;21.204;2022-12-07T12:07:48;6.55;;;3.25;;
22282;SDS011;11310;51.528;21.204;2022-12-07T12:10:45;6.53;;;2.88;;
22282;SDS011;11310;51.528;21.204;2022-12-07T12:17:05;5.78;;;2.78;;
22282;SDS011;11310;51.528;21.204;2022-12-07T12:20:00;4.93;;;2.50;;
22282;SDS011;11310;51.528;21.204;2022-12-07T12:22:39;4.28;;;2.20;;
22282;SDS011;11310;51.528;21.204;2022-12-07T12:25:15;5.15;;;2.60;;
22282;SDS011;11310;51.528;21.204;2022-12-07T12:27:53;4.05;;;2.13;;
22282;SDS011;11310;51.528;21.204;2022-12-07T12:30:28;5.95;;;3.10;;
22282;SDS011;11310;51.528;21.204;2022-12-07T12:33:04;3.67;;;2.33;;
22282;SDS011;11310;51.528;21.204;2022-12-07T12:35:42;5.32;;;2.58;;
22282;SDS011;11310;51.528;21.204;2022-12-07T12:41:01;6.45;;;2.70;;
22282;SDS011;11310;51.528;21.204;2022-12-07T12:46:38;6.53;;;2.75;;
22282;SDS011;11310;51.528;21.204;2022-12-07T12:58:46;3.72;;;2.20;;
22282;SDS011;11310;51.528;21.204;2022-12-07T13:07:00;4.82;;;2.50;;
22282;SDS011;11310;51.528;21.204;2022-12-07T13:09:30;6.30;;;2.55;;
22282;SDS011;11310;51.528;21.204;2022-12-07T13:12:05;5.82;;;2.35;;
22282;SDS011;11310;51.528;21.204;2022-12-07T13:14:43;6.32;;;3.00;;
22282;SDS011;11310;51.528;21.204;2022-12-07T13:20:47;5.25;;;2.67;;
22282;SDS011;11310;51.528;21.204;2022-12-07T13:23:24;5.10;;;2.80;;
22282;SDS011;11310;51.528;21.204;2022-12-07T13:26:00;6.95;;;3.10;;
22282;SDS011;11310;51.528;21.204;2022-12-07T13:28:44;6.35;;;3.17;;
22282;SDS011;11310;51.528;21.204;2022-12-07T13:31:31;8.50;;;4.00;;
22282;SDS011;11310;51.528;21.204;2022-12-07T13:34:03;7.03;;;3.40;;
22282;SDS011;11310;51.528;21.204;2022-12-07T13:36:36;8.68;;;3.58;;
22282;SDS011;11310;51.528;21.204;2022-12-07T13:39:11;7.95;;;4.10;;
22282;SDS011;11310;51.528;21.204;2022-12-07T13:41:50;10.43;;;4.20;;
22282;SDS011;11310;51.528;21.204;2022-12-07T13:44:20;8.07;;;4.03;;
22282;SDS011;11310;51.528;21.204;2022-12-07T13:46:52;7.43;;;3.92;;
22282;SDS011;11310;51.528;21.204;2022-12-07T13:49:26;7.97;;;4.13;;
22282;SDS011;11310;51.528;21.204;2022-12-07T13:52:08;10.10;;;4.63;;
22282;SDS011;11310;51.528;21.204;2022-12-07T13:54:49;8.93;;;4.13;;
22282;SDS011;11310;51.528;21.204;2022-12-07T13:57:26;9.25;;;4.53;;
22282;SDS011;11310;51.528;21.204;2022-12-07T14:00:01;9.40;;;4.40;;
22282;SDS011;11310;51.528;21.204;2022-12-07T14:02:35;11.20;;;5.13;;
22282;SDS011;11310;51.528;21.204;2022-12-07T14:05:13;11.13;;;4.85;;
22282;SDS011;11310;51.528;21.204;2022-12-07T14:07:53;10.10;;;4.75;;
22282;SDS011;11310;51.528;21.204;2022-12-07T14:10:24;9.88;;;5.03;;
22282;SDS011;11310;51.528;21.204;2022-12-07T14:12:54;10.98;;;6.05;;
22282;SDS011;11310;51.528;21.204;2022-12-07T14:15:24;11.48;;;5.78;;
22282;SDS011;11310;51.528;21.204;2022-12-07T14:18:00;10.77;;;5.63;;
22282;SDS011;11310;51.528;21.204;2022-12-07T14:20:32;11.13;;;5.70;;
22282;SDS011;11310;51.528;21.204;2022-12-07T14:23:21;15.85;;;6.28;;
22282;SDS011;11310;51.528;21.204;2022-12-07T14:26:04;14.55;;;5.75;;
22282;SDS011;11310;51.528;21.204;2022-12-07T14:28:36;12.82;;;5.28;;
22282;SDS011;11310;51.528;21.204;2022-12-07T14:31:08;9.20;;;5.15;;
22282;SDS011;11310;51.528;21.204;2022-12-07T14:33:54;10.55;;;5.03;;
22282;SDS011;11310;51.528;21.204;2022-12-07T14:36:22;11.65;;;5.20;;
22282;SDS011;11310;51.528;21.204;2022-12-07T14:38:54;14.75;;;5.68;;
22282;SDS011;11310;51.528;21.204;2022-12-07T14:41:24;10.47;;;5.50;;
22282;SDS011;11310;51.528;21.204;2022-12-07T14:44:11;13.32;;;6.53;;
22282;SDS011;11310;51.528;21.204;2022-12-07T14:46:57;11.23;;;5.65;;
22282;SDS011;11310;51.528;21.204;2022-12-07T14:49:47;11.45;;;5.45;;
22282;SDS011;11310;51.528;21.204;2022-12-07T14:52:17;13.57;;;6.03;;
22282;SDS011;11310;51.528;21.204;2022-12-07T14:55:12;15.45;;;6.40;;
22282;SDS011;11310;51.528;21.204;2022-12-07T14:57:47;11.75;;;5.80;;
22282;SDS011;11310;51.528;21.204;2022-12-07T15:00:17;12.98;;;5.63;;
22282;SDS011;11310;51.528;21.204;2022-12-07T15:02:47;11.98;;;5.75;;
22282;SDS011;11310;51.528;21.204;2022-12-07T15:05:19;12.77;;;5.53;;
22282;SDS011;11310;51.528;21.204;2022-12-07T15:07:49;9.93;;;5.30;;
22282;SDS011;11310;51.528;21.204;2022-12-07T15:10:21;16.95;;;8.25;;
22282;SDS011;11310;51.528;21.204;2022-12-07T15:12:54;13.30;;;6.53;;
22282;SDS011;11310;51.528;21.204;2022-12-07T15:15:43;13.02;;;6.20;;
22282;SDS011;11310;51.528;21.204;2022-12-07T15:18:12;13.60;;;7.03;;
22282;SDS011;11310;51.528;21.204;2022-12-07T15:20:43;13.95;;;7.28;;
22282;SDS011;11310;51.528;21.204;2022-12-07T15:23:12;13.20;;;6.95;;
22282;SDS011;11310;51.528;21.204;2022-12-07T15:25:43;16.20;;;7.30;;
22282;SDS011;11310;51.528;21.204;2022-12-07T15:28:13;14.75;;;7.55;;
22282;SDS011;11310;51.528;21.204;2022-12-07T15:30:43;16.63;;;7.68;;
22282;SDS011;11310;51.528;21.204;2022-12-07T15:33:13;16.38;;;8.00;;
22282;SDS011;11310;51.528;21.204;2022-12-07T15:35:47;17.20;;;7.70;;
22282;SDS011;11310;51.528;21.204;2022-12-07T15:38:15;18.40;;;7.72;;
22282;SDS011;11310;51.528;21.204;2022-12-07T15:41:05;19.23;;;7.82;;
22282;SDS011;11310;51.528;21.204;2022-12-07T15:43:35;18.55;;;7.65;;
22282;SDS011;11310;51.528;21.204;2022-12-07T15:46:22;18.95;;;7.60;;
22282;SDS011;11310;51.528;21.204;2022-12-07T15:48:51;18.70;;;7.70;;
22282;SDS011;11310;51.528;21.204;2022-12-07T15:51:23;17.65;;;8.48;;
22282;SDS011;11310;51.528;21.204;2022-12-07T15:53:52;17.85;;;8.75;;
22282;SDS011;11310;51.528;21.204;2022-12-07T15:56:21;16.25;;;7.72;;
22282;SDS011;11310;51.528;21.204;2022-12-07T15:58:51;14.60;;;7.85;;
22282;SDS011;11310;51.528;21.204;2022-12-07T16:01:20;15.77;;;7.15;;
22282;SDS011;11310;51.528;21.204;2022-12-07T16:03:49;14.82;;;6.13;;
22282;SDS011;11310;51.528;21.204;2022-12-07T16:06:18;13.07;;;6.72;;
22282;SDS011;11310;51.528;21.204;2022-12-07T16:08:48;14.07;;;6.78;;
22282;SDS011;11310;51.528;21.204;2022-12-07T16:11:17;20.42;;;6.97;;